Time;durP1;ratioP1;P1;durP2;ratioP2;P2;SDS_P1;SDS_P2;PMS_P1;PMS_P2;Temp;Humidity;BMP_temperature;BMP_pressure;BME280_temperature;BME280_humidity;BME280_pressure;Samples;Min_cycle;Max_cycle;Signal;HPM_P1;HPM_P2
2023/04/07 00:01:17;;;;;;;12.20;9.33;;;6.80;71.40;;;;;;5015040;28;21002;-49
2023/04/07 00:03:43;;;;;;;13.43;9.03;;;6.30;71.10;;;;;;5014934;28;20537;-50
2023/04/07 00:06:10;;;;;;;11.40;8.73;;;6.80;71.90;;;;;;5015014;28;20437;-50
2023/04/07 00:08:38;;;;;;;18.30;10.43;;;6.50;71.80;;;;;;5014569;28;20484;-51
2023/04/07 00:11:05;;;;;;;20.73;10.37;;;6.60;72.10;;;;;;4997190;28;20457;-51
2023/04/07 00:13:31;;;;;;;21.47;11.43;;;6.40;72.00;;;;;;5014898;28;20413;-51
2023/04/07 00:15:58;;;;;;;16.60;10.10;;;6.40;72.10;;;;;;5014801;28;20952;-50
2023/04/07 00:18:24;;;;;;;10.27;8.70;;;6.60;72.10;;;;;;5014434;28;20434;-51
2023/04/07 00:20:51;;;;;;;9.87;8.37;;;6.50;71.80;;;;;;5014754;28;20412;-51
2023/04/07 00:23:18;;;;;;;10.27;7.70;;;6.50;72.60;;;;;;4997061;28;20835;-49
2023/04/07 00:25:48;;;;;;;11.70;8.77;;;6.40;73.30;;;;;;5014664;28;20437;-49
2023/04/07 00:28:14;;;;;;;11.33;9.07;;;6.10;72.50;;;;;;4996642;28;20458;-50
2023/04/07 00:30:41;;;;;;;16.80;10.47;;;6.70;73.00;;;;;;5014477;28;20405;-51
2023/04/07 00:33:07;;;;;;;16.27;9.70;;;6.50;73.00;;;;;;5014500;28;20857;-50
2023/04/07 00:35:34;;;;;;;27.50;12.40;;;6.60;72.70;;;;;;4996856;28;20436;-49
2023/04/07 00:38:01;;;;;;;17.10;11.30;;;6.10;72.50;;;;;;5013934;28;20812;-49
2023/04/07 00:40:28;;;;;;;20.60;10.53;;;5.90;72.50;;;;;;4996509;28;20448;-50
2023/04/07 00:42:56;;;;;;;19.67;10.60;;;6.20;72.80;;;;;;4996671;28;20474;-51
2023/04/07 00:45:22;;;;;;;16.57;10.33;;;6.30;73.00;;;;;;4996574;28;20458;-51
2023/04/07 00:47:50;;;;;;;23.93;11.60;;;6.30;72.60;;;;;;4996533;28;20423;-50
2023/04/07 00:50:16;;;;;;;18.60;12.40;;;5.80;72.50;;;;;;5013738;28;20866;-49
2023/04/07 00:52:43;;;;;;;17.23;11.70;;;6.30;73.20;;;;;;5014044;28;20466;-51
2023/04/07 00:55:10;;;;;;;17.93;10.20;;;6.20;73.20;;;;;;5014263;28;20452;-51
2023/04/07 00:57:36;;;;;;;14.57;9.80;;;6.10;73.10;;;;;;4996726;28;20448;-50
2023/04/07 01:00:06;;;;;;;18.03;10.50;;;6.00;73.00;;;;;;4996192;28;20967;-50
2023/04/07 01:02:41;;;;;;;17.27;9.87;;;6.40;73.90;;;;;;4996435;28;20462;-51
2023/04/07 01:05:14;;;;;;;10.87;9.00;;;6.20;73.10;;;;;;5014235;28;20456;-50
2023/04/07 01:07:52;;;;;;;14.43;10.20;;;5.70;72.60;;;;;;4996339;28;20449;-49
2023/04/07 01:10:26;;;;;;;13.50;9.53;;;5.90;72.70;;;;;;4995923;28;20486;-51
2023/04/07 01:13:05;;;;;;;15.33;8.73;;;6.00;72.80;;;;;;4996160;28;20539;-50
2023/04/07 01:15:34;;;;;;;14.37;9.63;;;6.40;73.10;;;;;;4996187;28;20449;-50
2023/04/07 01:18:10;;;;;;;11.50;8.73;;;5.70;72.20;;;;;;4996085;28;20907;-51
2023/04/07 01:20:38;;;;;;;15.20;8.80;;;6.20;72.40;;;;;;4996039;28;20823;-50
2023/04/07 01:23:07;;;;;;;11.13;8.87;;;6.00;72.40;;;;;;4995870;28;20507;-49
2023/04/07 01:25:53;;;;;;;14.30;9.47;;;6.50;73.10;;;;;;4995960;28;20539;-50
2023/04/07 01:28:41;;;;;;;11.73;8.73;;;6.10;72.60;;;;;;5013290;28;20794;-50
2023/04/07 01:31:12;;;;;;;9.70;8.47;;;6.00;72.60;;;;;;4996084;28;20769;-50
2023/04/07 01:33:39;;;;;;;13.30;8.40;;;6.30;73.20;;;;;;5013428;28;20804;-50
2023/04/07 01:36:09;;;;;;;12.90;9.50;;;6.00;72.80;;;;;;4995688;28;20506;-52
2023/04/07 01:38:36;;;;;;;10.10;8.90;;;6.00;73.40;;;;;;5013307;28;20437;-51
2023/04/07 01:41:04;;;;;;;12.60;8.87;;;6.10;74.10;;;;;;5014034;28;20466;-50
2023/04/07 01:43:32;;;;;;;10.70;9.00;;;6.00;74.50;;;;;;4996468;28;20453;-50
2023/04/07 01:46:00;;;;;;;13.87;9.57;;;5.90;74.50;;;;;;5013788;28;20460;-51
2023/04/07 01:48:29;;;;;;;18.53;10.07;;;5.70;74.20;;;;;;5012639;28;20926;-49
2023/04/07 01:50:56;;;;;;;11.83;9.33;;;5.90;73.80;;;;;;4995922;28;20456;-49
2023/04/07 01:53:23;;;;;;;11.30;8.90;;;6.00;74.50;;;;;;4996565;28;20449;-49
2023/04/07 01:55:52;;;;;;;14.23;10.10;;;6.00;74.70;;;;;;4995987;28;20449;-49
2023/04/07 01:58:19;;;;;;;8.73;6.87;;;5.80;74.80;;;;;;4995829;28;20462;-49
2023/04/07 02:00:46;;;;;;;10.57;8.80;;;5.60;74.80;;;;;;4995768;28;20465;-51
2023/04/07 02:03:22;;;;;;;9.83;7.47;;;5.60;74.50;;;;;;4995976;28;20462;-49
2023/04/07 02:05:55;;;;;;;10.40;8.80;;;5.80;74.50;;;;;;4995941;28;20432;-50
2023/04/07 02:08:27;;;;;;;10.63;8.50;;;5.90;74.80;;;;;;4995634;28;20533;-50
2023/04/07 02:10:56;;;;;;;14.13;8.70;;;5.70;74.60;;;;;;4995808;28;20508;-51
2023/04/07 02:13:24;;;;;;;11.10;9.90;;;6.30;75.60;;;;;;4995855;28;20445;-48
2023/04/07 02:15:54;;;;;;;14.10;10.33;;;5.60;75.40;;;;;;4995844;28;20445;-50
2023/04/07 02:18:22;;;;;;;12.03;9.10;;;5.60;75.90;;;;;;4995084;28;20900;-49
2023/04/07 02:20:52;;;;;;;11.07;9.23;;;5.40;75.60;;;;;;5012965;28;20823;-52
2023/04/07 02:23:18;;;;;;;10.13;9.03;;;5.60;76.80;;;;;;5012672;28;20422;-49
2023/04/07 02:25:45;;;;;;;17.73;8.95;;;5.30;76.70;;;;;;5013066;28;20471;-49
2023/04/07 02:28:12;;;;;;;12.80;9.40;;;5.60;77.20;;;;;;4994763;28;20248;-50
2023/04/07 02:30:38;;;;;;;11.73;9.57;;;5.60;77.90;;;;;;4994924;28;20812;-48
2023/04/07 02:33:05;;;;;;;16.13;9.80;;;4.70;76.90;;;;;;4994993;28;20463;-49
2023/04/07 02:35:32;;;;;;;11.03;8.83;;;5.30;77.30;;;;;;4994968;28;20453;-49
2023/04/07 02:38:03;;;;;;;14.57;9.05;;;5.60;78.20;;;;;;5012551;28;20403;-51
2023/04/07 02:40:29;;;;;;;10.45;9.23;;;5.20;77.80;;;;;;4994609;28;20197;-51
2023/04/07 02:42:56;;;;;;;13.63;8.40;;;5.30;78.40;;;;;;4994768;28;20240;-50
2023/04/07 02:45:23;;;;;;;15.27;9.03;;;5.00;77.90;;;;;;4994729;28;20511;-49
2023/04/07 02:47:50;;;;;;;12.27;9.20;;;5.20;78.60;;;;;;4994680;28;20449;-49
2023/04/07 02:50:17;;;;;;;14.60;8.40;;;5.10;78.50;;;;;;4994236;28;20224;-49
2023/04/07 02:52:44;;;;;;;12.10;8.23;;;5.40;78.80;;;;;;5012082;28;20522;-49
2023/04/07 02:55:17;;;;;;;11.37;8.67;;;5.40;78.90;;;;;;4994627;28;20479;-49
2023/04/07 02:57:43;;;;;;;9.77;8.00;;;5.20;79.40;;;;;;4994762;28;20510;-49
2023/04/07 03:00:28;;;;;;;13.73;8.93;;;5.70;80.00;;;;;;4995604;28;20807;-48
2023/04/07 03:03:01;;;;;;;15.05;9.70;;;4.80;79.10;;;;;;5016208;28;20217;-49
2023/04/07 03:05:31;;;;;;;10.97;8.80;;;5.30;79.90;;;;;;4998623;28;20692;-49
2023/04/07 03:08:00;;;;;;;9.90;8.88;;;5.10;79.80;;;;;;4998640;28;20459;-48
2023/04/07 03:10:28;;;;;;;12.40;8.35;;;5.20;79.90;;;;;;4998038;28;20650;-49
2023/04/07 03:12:55;;;;;;;14.97;9.47;;;5.10;79.60;;;;;;4998344;28;20245;-49
2023/04/07 03:15:22;;;;;;;16.67;9.63;;;5.20;80.30;;;;;;5016382;28;20733;-49
2023/04/07 03:17:50;;;;;;;13.23;9.75;;;5.00;80.10;;;;;;4998254;28;20585;-49
2023/04/07 03:20:17;;;;;;;14.55;9.55;;;5.10;80.40;;;;;;4997803;28;20654;-50
2023/04/07 03:22:46;;;;;;;17.17;9.90;;;5.10;80.30;;;;;;5016033;28;20221;-49
2023/04/07 03:25:19;;;;;;;12.13;9.55;;;5.00;80.50;;;;;;4998291;28;20254;-49
2023/04/07 03:27:47;;;;;;;12.68;9.75;;;5.30;80.70;;;;;;4998155;28;20205;-49
2023/04/07 03:30:15;;;;;;;10.98;9.27;;;5.00;80.40;;;;;;4997695;28;20245;-48
2023/04/07 03:32:43;;;;;;;11.77;8.80;;;5.20;80.70;;;;;;4998009;28;20240;-48
2023/04/07 03:35:10;;;;;;;13.82;9.23;;;4.90;80.10;;;;;;4998077;28;20201;-49
2023/04/07 03:37:37;;;;;;;11.15;9.18;;;5.20;80.10;;;;;;5015597;28;20221;-49
2023/04/07 03:40:07;;;;;;;13.10;9.13;;;4.50;79.80;;;;;;4997517;28;20631;-49
2023/04/07 03:42:35;;;;;;;9.93;8.93;;;5.30;80.50;;;;;;4997841;28;20276;-50
2023/04/07 03:45:08;;;;;;;13.55;8.85;;;5.40;80.80;;;;;;4997752;28;20201;-49
2023/04/07 03:47:38;;;;;;;11.63;8.90;;;5.10;80.50;;;;;;4997791;28;20201;-48
2023/04/07 03:50:06;;;;;;;12.07;9.27;;;5.10;80.00;;;;;;4997359;28;20230;-48
2023/04/07 03:52:40;;;;;;;13.35;10.27;;;5.30;80.60;;;;;;4997695;28;20283;-50
2023/04/07 03:55:17;;;;;;;14.82;9.60;;;5.10;80.40;;;;;;4997691;28;20295;-49
2023/04/07 03:57:43;;;;;;;10.35;9.35;;;5.20;80.80;;;;;;4997431;28;20566;-49
2023/04/07 04:00:13;;;;;;;12.70;10.00;;;5.40;80.70;;;;;;4997218;28;20208;-49
2023/04/07 04:03:01;;;;;;;11.60;9.27;;;5.10;80.70;;;;;;4997389;28;20502;-47
2023/04/07 04:05:28;;;;;;;10.70;8.90;;;5.10;80.40;;;;;;4997531;28;20212;-50
2023/04/07 04:07:56;;;;;;;16.55;9.27;;;5.30;81.10;;;;;;4997405;28;20209;-52
2023/04/07 04:10:23;;;;;;;14.10;9.48;;;5.00;80.90;;;;;;4996949;28;20357;-49
2023/04/07 04:12:52;;;;;;;10.82;8.85;;;5.20;81.00;;;;;;4996469;28;20245;-49
2023/04/07 04:15:20;;;;;;;12.20;10.02;;;5.00;81.00;;;;;;4997374;28;20289;-50
2023/04/07 04:17:48;;;;;;;12.68;8.93;;;5.00;80.50;;;;;;4997276;28;20666;-48
2023/04/07 04:20:15;;;;;;;12.23;9.95;;;4.80;80.50;;;;;;4997038;28;20243;-49
2023/04/07 04:22:46;;;;;;;15.43;10.10;;;4.90;81.40;;;;;;4997165;28;20599;-49
2023/04/07 04:25:12;;;;;;;12.32;9.98;;;4.40;81.10;;;;;;4997450;28;20511;-50
2023/04/07 04:27:45;;;;;;;14.27;10.00;;;5.10;82.10;;;;;;4997399;28;20201;-49
2023/04/07 04:30:17;;;;;;;11.20;9.00;;;4.80;82.00;;;;;;4996728;28;20218;-50
2023/04/07 04:32:52;;;;;;;11.88;10.20;;;4.20;81.50;;;;;;4997295;28;20277;-49
2023/04/07 04:35:25;;;;;;;10.45;9.45;;;4.60;82.00;;;;;;4997197;28;20570;-50
2023/04/07 04:38:03;;;;;;;11.57;10.07;;;5.10;82.70;;;;;;4997044;28;20675;-52
2023/04/07 04:40:30;;;;;;;11.55;10.32;;;4.80;82.60;;;;;;4996734;28;20198;-50
2023/04/07 04:42:57;;;;;;;13.25;9.43;;;4.80;82.70;;;;;;4996964;28;20221;-48
2023/04/07 04:45:25;;;;;;;13.32;9.60;;;5.00;83.30;;;;;;4996693;28;20205;-49
2023/04/07 04:47:53;;;;;;;14.07;10.25;;;4.70;83.30;;;;;;4996639;28;20300;-50
2023/04/07 04:50:20;;;;;;;12.48;10.32;;;4.90;83.60;;;;;;4996325;28;20272;-48
2023/04/07 04:52:47;;;;;;;17.95;11.40;;;5.10;83.80;;;;;;4996584;28;20263;-48
2023/04/07 04:55:20;;;;;;;11.68;9.80;;;4.60;83.70;;;;;;4996656;28;20255;-48
2023/04/07 04:57:47;;;;;;;14.02;9.77;;;4.60;84.00;;;;;;4996575;28;20601;-49
2023/04/07 05:00:21;;;;;;;17.00;11.57;;;5.20;84.70;;;;;;4996266;28;20201;-49
2023/04/07 05:02:50;;;;;;;12.95;10.00;;;4.70;84.40;;;;;;4996634;28;20221;-50
2023/04/07 05:05:18;;;;;;;13.90;11.10;;;4.70;84.70;;;;;;5014098;28;20823;-48
2023/04/07 05:07:45;;;;;;;15.55;10.73;;;4.90;85.10;;;;;;4996322;28;20197;-48
2023/04/07 05:10:15;;;;;;;11.65;9.93;;;4.70;85.40;;;;;;4995837;28;20244;-49
2023/04/07 05:12:47;;;;;;;12.43;11.13;;;4.20;84.90;;;;;;4996100;28;20701;-50
2023/04/07 05:15:14;;;;;;;12.05;10.48;;;5.00;85.70;;;;;;4996185;28;20201;-49
2023/04/07 05:17:41;;;;;;;15.75;12.32;;;5.10;85.90;;;;;;4996043;28;20229;-49
2023/04/07 05:20:11;;;;;;;15.98;10.60;;;4.50;85.40;;;;;;4995688;28;20198;-48
2023/04/07 05:22:42;;;;;;;15.27;10.13;;;4.90;85.70;;;;;;5013531;28;20214;-49
2023/04/07 05:25:13;;;;;;;14.82;11.63;;;4.60;85.70;;;;;;4995808;28;20252;-49
2023/04/07 05:27:42;;;;;;;14.13;11.20;;;5.10;86.10;;;;;;4995909;28;20292;-49
2023/04/07 05:30:14;;;;;;;14.70;11.25;;;5.10;86.20;;;;;;4995709;28;20255;-49
2023/04/07 05:32:41;;;;;;;12.93;11.03;;;5.30;86.40;;;;;;4995715;28;20307;-49
2023/04/07 05:35:17;;;;;;;16.30;12.05;;;5.10;86.30;;;;;;4995841;28;20444;-49
2023/04/07 05:37:51;;;;;;;13.32;11.27;;;5.10;86.20;;;;;;4995571;28;20207;-49
2023/04/07 05:40:19;;;;;;;14.90;10.93;;;5.20;86.20;;;;;;4995230;28;20670;-48
2023/04/07 05:42:45;;;;;;;12.70;11.03;;;5.20;86.30;;;;;;4995382;28;21008;-49
2023/04/07 05:45:13;;;;;;;15.10;10.70;;;5.30;86.40;;;;;;4995510;28;20449;-49
2023/04/07 05:47:46;;;;;;;11.40;9.68;;;5.30;86.60;;;;;;4995445;28;20423;-48
2023/04/07 05:50:13;;;;;;;14.38;11.52;;;5.10;86.40;;;;;;4994964;28;20205;-49
2023/04/07 05:52:41;;;;;;;13.90;10.85;;;5.20;86.70;;;;;;4995076;28;20654;-49
2023/04/07 05:55:20;;;;;;;16.27;11.30;;;5.40;86.90;;;;;;4995492;28;20686;-50
2023/04/07 05:57:48;;;;;;;16.52;11.60;;;5.40;87.00;;;;;;4995261;28;20305;-48
2023/04/07 06:00:16;;;;;;;17.00;10.97;;;5.10;86.90;;;;;;4994980;28;20209;-48
2023/04/07 06:02:48;;;;;;;13.57;11.20;;;5.40;87.10;;;;;;4995124;28;20984;-48
2023/04/07 06:05:18;;;;;;;15.83;11.30;;;5.60;87.30;;;;;;4995150;28;20427;-50
2023/04/07 06:07:46;;;;;;;13.88;10.48;;;5.60;87.60;;;;;;4994941;28;20518;-49
2023/04/07 06:10:14;;;;;;;12.95;11.25;;;5.40;87.70;;;;;;4994724;28;20235;-49
2023/04/07 06:12:42;;;;;;;15.00;10.50;;;5.40;87.90;;;;;;4994917;28;20232;-49
2023/04/07 06:15:10;;;;;;;14.60;11.23;;;5.30;88.20;;;;;;4994896;28;21079;-49
2023/04/07 06:17:38;;;;;;;15.00;11.30;;;5.40;88.20;;;;;;4995066;28;20448;-49
2023/04/07 06:20:05;;;;;;;11.80;10.50;;;5.60;88.00;;;;;;5012311;28;20411;-49
2023/04/07 06:22:33;;;;;;;12.15;10.68;;;5.60;88.10;;;;;;4994742;28;20485;-49
2023/04/07 06:25:00;;;;;;;13.37;10.00;;;5.60;88.20;;;;;;4994775;28;20205;-48
2023/04/07 06:27:27;;;;;;;18.13;10.97;;;5.70;88.60;;;;;;4994881;28;20444;-49
2023/04/07 06:29:56;;;;;;;15.40;11.13;;;5.60;88.70;;;;;;5011949;28;20978;-49
2023/04/07 06:32:23;;;;;;;14.60;11.43;;;5.80;88.50;;;;;;5012364;28;20469;-48
2023/04/07 06:34:49;;;;;;;13.33;10.43;;;5.40;87.90;;;;;;4994135;28;20449;-49
2023/04/07 06:37:16;;;;;;;14.30;11.73;;;5.60;88.90;;;;;;5012165;28;20497;-50
2023/04/07 06:39:44;;;;;;;15.40;11.20;;;5.40;88.60;;;;;;5011904;28;20475;-50
2023/04/07 06:42:10;;;;;;;12.70;11.17;;;6.10;89.70;;;;;;5012097;28;21051;-49
2023/04/07 06:44:48;;;;;;;14.13;12.20;;;5.70;89.10;;;;;;5012548;28;20461;-49
2023/04/07 06:47:16;;;;;;;16.43;12.80;;;5.40;89.40;;;;;;5012125;28;20417;-49
2023/04/07 06:49:42;;;;;;;15.00;11.70;;;6.00;90.00;;;;;;5011783;28;20444;-48
2023/04/07 06:52:09;;;;;;;16.80;12.27;;;5.90;90.10;;;;;;5011992;28;20975;-48
2023/04/07 06:54:35;;;;;;;14.63;11.80;;;5.50;89.60;;;;;;4994365;28;20472;-50
2023/04/07 06:57:02;;;;;;;16.03;11.43;;;6.00;90.20;;;;;;5012032;28;20463;-50
2023/04/07 06:59:29;;;;;;;18.00;13.03;;;6.10;90.30;;;;;;5011825;28;20464;-50
2023/04/07 07:01:55;;;;;;;14.03;11.60;;;6.20;90.50;;;;;;5012188;28;20448;-50
2023/04/07 07:04:23;;;;;;;13.23;11.70;;;6.20;90.40;;;;;;5012179;28;20445;-50
2023/04/07 07:06:50;;;;;;;15.23;12.00;;;6.20;90.40;;;;;;5012024;28;20415;-50
2023/04/07 07:09:17;;;;;;;14.50;11.37;;;6.30;90.50;;;;;;5011694;28;20778;-49
2023/04/07 07:11:43;;;;;;;14.47;11.40;;;6.00;90.20;;;;;;5011934;28;20466;-50
2023/04/07 07:14:10;;;;;;;14.63;12.03;;;6.50;90.60;;;;;;5011983;28;20437;-50
2023/04/07 07:16:37;;;;;;;14.07;11.07;;;6.90;90.70;;;;;;5012098;28;20433;-49
2023/04/07 07:19:03;;;;;;;15.50;11.07;;;6.50;90.40;;;;;;5012033;28;20902;-48
2023/04/07 07:21:31;;;;;;;15.40;11.33;;;6.50;90.50;;;;;;5012689;28;20433;-48
2023/04/07 07:23:58;;;;;;;14.43;10.43;;;6.80;90.50;;;;;;5012409;28;20997;-49
2023/04/07 07:26:25;;;;;;;11.57;9.50;;;6.50;89.70;;;;;;5012033;28;20433;-50
2023/04/07 07:28:51;;;;;;;13.23;9.40;;;6.60;89.80;;;;;;5011979;28;20420;-49
2023/04/07 07:31:18;;;;;;;15.33;9.10;;;6.90;89.30;;;;;;5012305;28;20494;-49
2023/04/07 07:33:47;;;;;;;10.57;9.47;;;6.40;87.70;;;;;;5013093;28;20450;-49
2023/04/07 07:36:14;;;;;;;12.97;8.90;;;7.10;88.00;;;;;;5012634;28;20445;-48
2023/04/07 07:38:42;;;;;;;10.80;9.13;;;7.20;87.80;;;;;;5012370;28;21040;-50
2023/04/07 07:41:08;;;;;;;11.73;8.67;;;6.90;85.90;;;;;;5012385;28;20454;-50
2023/04/07 07:43:36;;;;;;;9.17;7.70;;;7.50;84.50;;;;;;5012522;28;20441;-49
2023/04/07 07:46:02;;;;;;;10.47;8.07;;;7.80;81.90;;;;;;5011932;28;20446;-51
2023/04/07 07:48:29;;;;;;;9.50;7.40;;;7.50;80.60;;;;;;5014016;28;20438;-49
2023/04/07 07:50:56;;;;;;;11.33;7.47;;;7.70;79.80;;;;;;5015103;28;20495;-50
2023/04/07 07:53:23;;;;;;;9.17;7.43;;;7.80;79.90;;;;;;5016005;28;20498;-49
2023/04/07 07:55:51;;;;;;;10.80;7.93;;;7.80;79.30;;;;;;5015408;28;20421;-48
2023/04/07 07:58:17;;;;;;;10.50;7.30;;;7.80;79.00;;;;;;5014815;28;20445;-49
2023/04/07 08:00:44;;;;;;;8.63;6.77;;;7.50;78.00;;;;;;5015091;28;20444;-50
2023/04/07 08:03:11;;;;;;;7.87;6.63;;;7.90;77.00;;;;;;5015071;28;20438;-49
2023/04/07 08:05:37;;;;;;;8.57;6.90;;;7.90;76.60;;;;;;4997225;28;20502;-50
2023/04/07 08:08:04;;;;;;;8.70;6.50;;;7.60;75.90;;;;;;5014896;28;20415;-50
2023/04/07 08:10:31;;;;;;;7.83;6.63;;;7.70;75.20;;;;;;5014814;28;20444;-50
2023/04/07 08:12:58;;;;;;;8.87;6.90;;;8.00;75.30;;;;;;5014709;28;20469;-49
2023/04/07 08:15:25;;;;;;;7.07;6.33;;;8.50;74.10;;;;;;5014772;28;20443;-50
2023/04/07 08:17:52;;;;;;;11.40;7.70;;;8.00;73.00;;;;;;5014838;28;20470;-51
2023/04/07 08:20:19;;;;;;;11.63;6.90;;;8.00;72.60;;;;;;5014291;28;20439;-50
2023/04/07 08:22:46;;;;;;;9.83;7.07;;;7.90;70.50;;;;;;5014689;28;20451;-51
2023/04/07 08:25:13;;;;;;;8.20;6.97;;;8.30;71.10;;;;;;5014514;28;20451;-51
2023/04/07 08:27:39;;;;;;;9.47;7.00;;;8.00;70.60;;;;;;5014429;28;20929;-50
2023/04/07 08:30:08;;;;;;;10.40;7.47;;;8.40;70.90;;;;;;5014162;28;20441;-50
2023/04/07 08:32:36;;;;;;;7.80;6.83;;;8.20;70.20;;;;;;5014158;28;20989;-50
2023/04/07 08:35:03;;;;;;;8.10;6.47;;;8.00;69.70;;;;;;5014638;28;21007;-49
2023/04/07 08:37:30;;;;;;;7.70;6.77;;;8.30;69.40;;;;;;5014191;28;20451;-50
2023/04/07 08:39:57;;;;;;;7.23;6.07;;;8.40;68.90;;;;;;5013937;28;20403;-50
2023/04/07 08:42:28;;;;;;;8.53;6.10;;;8.20;68.50;;;;;;5014129;28;20543;-50
2023/04/07 08:44:56;;;;;;;9.87;7.30;;;8.30;68.70;;;;;;5014074;28;20517;-50
2023/04/07 08:47:25;;;;;;;9.10;7.27;;;7.90;68.80;;;;;;5014123;28;20897;-50
2023/04/07 08:49:53;;;;;;;9.00;5.93;;;8.20;69.60;;;;;;5013766;28;20535;-50
2023/04/07 08:52:23;;;;;;;10.17;7.27;;;8.50;70.20;;;;;;5013742;28;21003;-50
2023/04/07 08:54:52;;;;;;;7.23;6.27;;;8.10;70.10;;;;;;5014034;28;20448;-49
2023/04/07 08:57:19;;;;;;;8.10;6.30;;;8.50;70.90;;;;;;5013995;28;20418;-50
2023/04/07 08:59:50;;;;;;;9.40;6.63;;;8.80;70.90;;;;;;5013109;28;20432;-50
2023/04/07 09:02:17;;;;;;;8.60;5.77;;;8.20;70.60;;;;;;5013835;28;20427;-49
2023/04/07 09:04:45;;;;;;;11.83;4.97;;;8.50;70.40;;;;;;5013905;28;20420;-50
2023/04/07 09:07:12;;;;;;;9.37;5.50;;;8.50;68.30;;;;;;5013955;28;20443;-50
2023/04/07 09:09:39;;;;;;;7.60;5.20;;;8.40;68.00;;;;;;5013485;28;20444;-49
2023/04/07 09:12:06;;;;;;;9.80;4.90;;;8.70;66.70;;;;;;5013653;28;20525;-50
2023/04/07 09:14:33;;;;;;;7.20;5.30;;;8.80;65.90;;;;;;5013451;28;20995;-51
2023/04/07 09:16:59;;;;;;;6.80;5.10;;;8.60;66.20;;;;;;5013587;28;20411;-49
2023/04/07 09:19:27;;;;;;;9.23;5.67;;;8.50;63.80;;;;;;5013408;28;20529;-50
2023/04/07 09:21:55;;;;;;;6.70;4.83;;;7.60;63.20;;;;;;5013511;28;20510;-51
2023/04/07 09:24:23;;;;;;;6.20;4.30;;;8.10;64.30;;;;;;4995912;28;20423;-51
2023/04/07 09:26:50;;;;;;;5.97;4.77;;;8.50;65.50;;;;;;5013298;28;20532;-51
2023/04/07 09:29:19;;;;;;;5.50;4.60;;;8.50;65.40;;;;;;5012975;28;20498;-51
2023/04/07 09:31:49;;;;;;;6.03;4.40;;;8.20;65.80;;;;;;5013094;28;20476;-50
2023/04/07 09:34:25;;;;;;;6.30;4.90;;;8.40;66.50;;;;;;5013246;28;20631;-51
2023/04/07 09:36:51;;;;;;;7.10;4.77;;;7.80;65.50;;;;;;5013312;28;20510;-51
2023/04/07 09:39:19;;;;;;;6.77;5.50;;;8.60;67.20;;;;;;5012879;28;20429;-51
2023/04/07 09:41:46;;;;;;;6.53;4.60;;;8.10;67.00;;;;;;5013130;28;20486;-52
2023/04/07 09:44:13;;;;;;;5.70;4.67;;;8.10;67.60;;;;;;5013117;28;20491;-50
2023/04/07 09:46:49;;;;;;;6.30;4.77;;;8.00;67.60;;;;;;5013114;28;20667;-51
2023/04/07 09:49:16;;;;;;;5.77;4.30;;;8.00;68.10;;;;;;5012867;28;20444;-50
2023/04/07 09:51:53;;;;;;;7.70;3.90;;;7.90;67.30;;;;;;5012904;28;20469;-50
2023/04/07 09:54:33;;;;;;;6.30;3.87;;;8.00;67.40;;;;;;5013062;28;20460;-51
2023/04/07 09:57:01;;;;;;;5.00;4.30;;;8.00;67.40;;;;;;5012983;28;20465;-49
2023/04/07 09:59:28;;;;;;;5.73;3.97;;;8.00;68.00;;;;;;5012605;28;20801;-50
2023/04/07 10:01:55;;;;;;;6.50;3.70;;;8.00;68.60;;;;;;5012900;28;20463;-51
2023/04/07 10:04:22;;;;;;;6.57;4.00;;;7.70;68.80;;;;;;5013131;28;20915;-49
2023/04/07 10:06:49;;;;;;;7.43;4.67;;;7.80;68.70;;;;;;5013283;28;20842;-51
2023/04/07 10:09:16;;;;;;;5.90;3.90;;;8.20;69.40;;;;;;5012660;28;20548;-50
2023/04/07 10:11:45;;;;;;;5.73;4.10;;;7.70;68.90;;;;;;5012266;28;20807;-50
2023/04/07 10:14:12;;;;;;;5.00;3.97;;;8.10;69.80;;;;;;5012798;28;20428;-49
2023/04/07 10:16:41;;;;;;;6.40;4.60;;;7.90;70.10;;;;;;5012751;28;20859;-49
2023/04/07 10:19:08;;;;;;;5.70;4.60;;;8.60;71.00;;;;;;5012236;28;20428;-51
2023/04/07 10:21:38;;;;;;;6.77;4.80;;;8.10;70.60;;;;;;5012646;28;20451;-49
2023/04/07 10:24:18;;;;;;;7.17;4.67;;;8.20;70.60;;;;;;5012798;28;20442;-49
2023/04/07 10:26:50;;;;;;;5.33;4.53;;;8.30;71.20;;;;;;5012682;28;20436;-49
2023/04/07 10:29:18;;;;;;;5.07;4.53;;;7.60;71.00;;;;;;5011946;28;20450;-50
2023/04/07 10:31:45;;;;;;;5.50;4.20;;;8.30;72.30;;;;;;5012159;28;20460;-51
2023/04/07 10:34:12;;;;;;;6.43;4.47;;;8.20;73.00;;;;;;5012404;28;20931;-51
2023/04/07 10:37:08;;;;;;;5.13;4.63;;;8.30;73.70;;;;;;5012201;28;20439;-50
2023/04/07 10:39:36;;;;;;;5.73;4.47;;;8.30;74.40;;;;;;5011901;28;20429;-50
2023/04/07 10:42:04;;;;;;;6.10;4.20;;;8.40;74.90;;;;;;5012131;28;20503;-50
2023/04/07 10:44:49;;;;;;;6.80;5.00;;;8.50;75.60;;;;;;5012337;28;20453;-51
2023/04/07 10:47:16;;;;;;;8.10;6.27;;;8.50;76.00;;;;;;4994756;28;20455;-51
2023/04/07 10:50:17;;;;;;;10.90;6.37;;;8.30;76.30;;;;;;5012283;28;20419;-51
2023/04/07 10:52:44;;;;;;;7.40;5.40;;;8.70;77.90;;;;;;4994468;28;20454;-51
2023/04/07 10:55:31;;;;;;;6.60;5.37;;;8.40;79.80;;;;;;5012366;28;20523;-49
2023/04/07 10:58:19;;;;;;;7.43;5.80;;;9.00;84.20;;;;;;4994568;28;20449;-50
2023/04/07 11:01:18;;;;;;;6.97;5.73;;;8.50;85.30;;;;;;5011897;28;20444;-51
2023/04/07 11:03:57;;;;;;;8.73;6.17;;;8.70;87.20;;;;;;4979049;28;20422;-51
2023/04/07 11:06:25;;;;;;;6.90;6.20;;;8.70;88.80;;;;;;5012016;28;20436;-50
2023/04/07 11:08:51;;;;;;;11.07;8.00;;;8.80;89.30;;;;;;5011404;28;20509;-51
2023/04/07 11:11:34;;;;;;;9.07;8.17;;;8.70;90.50;;;;;;5011861;28;20438;-50
2023/04/07 11:14:02;;;;;;;11.33;10.23;;;8.00;91.10;;;;;;5012030;28;20841;-50
2023/04/07 11:16:36;;;;;;;12.67;11.37;;;8.70;92.80;;;;;;5012041;28;20904;-51
2023/04/07 11:19:03;;;;;;;12.20;11.00;;;8.60;93.50;;;;;;5011733;28;20437;-51
2023/04/07 11:21:30;;;;;;;12.43;11.13;;;8.60;93.70;;;;;;5012873;28;20438;-51
2023/04/07 11:23:56;;;;;;;14.60;12.70;;;8.90;94.40;;;;;;5015721;28;20465;-51
2023/04/07 11:26:23;;;;;;;16.10;14.50;;;8.60;94.70;;;;;;5015726;28;20550;-50
2023/04/07 11:28:52;;;;;;;17.20;15.00;;;8.40;95.00;;;;;;5015406;28;20411;-51
2023/04/07 11:31:23;;;;;;;14.90;13.40;;;9.00;95.80;;;;;;5015941;28;20448;-52
2023/04/07 11:33:53;;;;;;;15.17;13.60;;;8.90;95.90;;;;;;5015380;28;20518;-50
2023/04/07 11:36:27;;;;;;;15.20;13.70;;;8.40;95.80;;;;;;5016089;28;20415;-51
2023/04/07 11:38:54;;;;;;;14.73;13.20;;;8.60;96.00;;;;;;5015582;28;20536;-49
2023/04/07 11:41:21;;;;;;;15.30;13.70;;;8.80;96.30;;;;;;5016214;28;20484;-50
2023/04/07 11:43:48;;;;;;;14.20;12.70;;;8.30;96.70;;;;;;5015693;28;20410;-50
2023/04/07 11:46:16;;;;;;;15.90;12.40;;;8.80;97.50;;;;;;5016074;28;20821;-52
2023/04/07 11:48:46;;;;;;;14.07;12.67;;;9.00;97.80;;;;;;5015456;28;20447;-51
2023/04/07 11:51:16;;;;;;;13.47;12.17;;;8.80;97.80;;;;;;5015533;28;20427;-52
2023/04/07 11:53:43;;;;;;;13.37;11.97;;;8.80;98.40;;;;;;5015563;28;20479;-50
2023/04/07 11:56:15;;;;;;;11.37;9.90;;;9.00;98.80;;;;;;5015985;28;20417;-49
2023/04/07 11:58:47;;;;;;;9.83;8.83;;;8.20;98.50;;;;;;5015348;28;20937;-51
2023/04/07 12:01:13;;;;;;;10.60;9.17;;;8.60;99.10;;;;;;5015155;28;20431;-50
2023/04/07 12:03:57;;;;;;;12.00;8.70;;;8.50;99.00;;;;;;5014981;28;20568;-49
2023/04/07 12:06:29;;;;;;;11.30;8.90;;;8.70;99.30;;;;;;4997581;28;20452;-50
2023/04/07 12:08:55;;;;;;;8.83;7.90;;;8.50;99.80;;;;;;5015019;28;20418;-50
2023/04/07 12:11:23;;;;;;;9.80;7.87;;;8.60;99.90;;;;;;5015109;28;20431;-49
2023/04/07 12:13:50;;;;;;;9.60;8.37;;;8.60;99.90;;;;;;5014814;28;20458;-50
2023/04/07 12:16:17;;;;;;;9.90;7.93;;;8.00;99.90;;;;;;5015140;28;20455;-50
2023/04/07 12:18:44;;;;;;;8.83;7.93;;;8.50;99.90;;;;;;5015195;28;20583;-50
2023/04/07 12:21:12;;;;;;;12.37;9.03;;;8.20;99.90;;;;;;5014984;28;20436;-50
2023/04/07 12:23:39;;;;;;;10.40;8.77;;;8.40;99.90;;;;;;5014804;28;20463;-50
2023/04/07 12:26:06;;;;;;;10.87;8.40;;;8.50;99.90;;;;;;5015011;28;20451;-49
2023/04/07 12:28:33;;;;;;;12.13;8.87;;;8.40;99.90;;;;;;5014599;28;20439;-51
2023/04/07 12:30:59;;;;;;;13.07;9.80;;;8.40;99.90;;;;;;5014661;28;20411;-50
2023/04/07 12:33:26;;;;;;;13.93;9.20;;;7.60;99.90;;;;;;5014021;28;20480;-50
2023/04/07 12:35:52;;;;;;;10.67;7.80;;;8.30;99.90;;;;;;5014715;28;20791;-51
2023/04/07 12:38:20;;;;;;;9.37;7.30;;;8.30;99.90;;;;;;5014365;28;20455;-50
2023/04/07 12:40:47;;;;;;;8.97;7.87;;;8.50;99.90;;;;;;5014580;28;20416;-51
2023/04/07 12:43:14;;;;;;;11.70;8.30;;;8.20;99.90;;;;;;5014295;28;20455;-50
2023/04/07 12:45:40;;;;;;;9.83;8.50;;;9.00;99.90;;;;;;5014745;28;20432;-50
2023/04/07 12:48:07;;;;;;;7.73;5.57;;;8.40;99.90;;;;;;5014006;28;20463;-51
2023/04/07 12:50:35;;;;;;;7.10;5.70;;;8.60;99.90;;;;;;5014503;28;20779;-51
2023/04/07 12:53:04;;;;;;;7.27;6.27;;;8.50;99.90;;;;;;5013927;28;20493;-51
2023/04/07 12:55:34;;;;;;;8.27;6.10;;;8.40;99.90;;;;;;5014326;28;20432;-49